Time;durP1;ratioP1;P1;durP2;ratioP2;P2;SDS_P1;SDS_P2;PMS_P1;PMS_P2;Temp;Humidity;BMP_temperature;BMP_pressure;BME280_temperature;BME280_humidity;BME280_pressure;Samples;Min_cycle;Max_cycle;Signal;HPM_P1;HPM_P2
2023/02/23 00:00:27;;;;;;;11.40;5.30;;;;;;;;;;105343;1263;60513;-46
2023/02/23 00:02:59;;;;;;;12.90;5.30;;;;;;;;;;105082;1263;59734;-46
2023/02/23 00:05:28;;;;;;;7.20;2.80;;;;;;;;;;105540;1263;59567;-47
2023/02/23 00:07:56;;;;;;;7.90;3.20;;;;;;;;;;105060;1260;61195;-47
2023/02/23 00:10:30;;;;;;;9.40;3.70;;;;;;;;;;104871;1263;59530;-46
2023/02/23 00:12:58;;;;;;;11.90;3.80;;;;;;;;;;105251;1258;61070;-47
2023/02/23 00:15:30;;;;;;;9.20;2.80;;;;;;;;;;105472;1259;59729;-46
2023/02/23 00:17:58;;;;;;;7.20;2.90;;;;;;;;;;105227;1256;59590;-48
2023/02/23 00:20:26;;;;;;;8.60;3.40;;;;;;;;;;105193;1257;61319;-45
2023/02/23 00:22:55;;;;;;;7.20;3.60;;;;;;;;;;105460;1256;59742;-47
2023/02/23 00:25:23;;;;;;;10.90;2.80;;;;;;;;;;105407;1255;60483;-45
2023/02/23 00:27:51;;;;;;;7.50;3.40;;;;;;;;;;105509;1257;59676;-45
2023/02/23 00:30:19;;;;;;;7.40;2.90;;;;;;;;;;105252;1257;59602;-46
2023/02/23 00:32:51;;;;;;;6.90;3.10;;;;;;;;;;105326;1257;61498;-44
2023/02/23 00:35:19;;;;;;;4.90;3.00;;;;;;;;;;105364;1260;59618;-46
2023/02/23 00:37:51;;;;;;;6.70;3.50;;;;;;;;;;105341;1258;60509;-45
2023/02/23 00:40:22;;;;;;;7.10;2.50;;;;;;;;;;105191;1257;59730;-47
2023/02/23 00:42:51;;;;;;;5.30;2.30;;;;;;;;;;105603;1258;59513;-46
2023/02/23 00:45:20;;;;;;;7.00;2.80;;;;;;;;;;105294;1257;61265;-46
2023/02/23 00:47:48;;;;;;;7.00;3.00;;;;;;;;;;105167;1262;60072;-46
2023/02/23 00:50:16;;;;;;;6.60;2.60;;;;;;;;;;105230;1257;60644;-45
2023/02/23 00:52:44;;;;;;;7.10;2.50;;;;;;;;;;105324;1257;59755;-46
2023/02/23 00:55:12;;;;;;;7.00;3.40;;;;;;;;;;105148;1263;59603;-47
2023/02/23 00:57:41;;;;;;;9.00;3.20;;;;;;;;;;105212;1260;61516;-46
2023/02/23 01:00:17;;;;;;;10.60;3.60;;;;;;;;;;105286;1258;59615;-46
2023/02/23 01:02:46;;;;;;;6.20;2.80;;;;;;;;;;105137;1258;60909;-45
2023/02/23 01:05:15;;;;;;;7.90;3.60;;;;;;;;;;105172;1260;59768;-45
2023/02/23 01:07:45;;;;;;;7.30;3.20;;;;;;;;;;105492;1256;59627;-45
2023/02/23 01:10:19;;;;;;;7.70;3.10;;;;;;;;;;105270;1258;61157;-46
2023/02/23 01:12:49;;;;;;;11.00;4.00;;;;;;;;;;105002;1262;59589;-47
2023/02/23 01:15:17;;;;;;;8.00;3.80;;;;;;;;;;105294;1258;61050;-46
2023/02/23 01:17:45;;;;;;;11.40;5.80;;;;;;;;;;105169;1257;59672;-45
2023/02/23 01:20:18;;;;;;;12.70;6.00;;;;;;;;;;105162;1254;59707;-46
2023/02/23 01:22:50;;;;;;;9.50;4.80;;;;;;;;;;105767;1260;61362;-47
2023/02/23 01:25:18;;;;;;;9.90;4.50;;;;;;;;;;105103;1259;59647;-47
2023/02/23 01:27:46;;;;;;;9.10;3.40;;;;;;;;;;105100;1260;59599;-45
2023/02/23 01:30:14;;;;;;;7.80;3.90;;;;;;;;;;105280;1259;59666;-47
2023/02/23 01:32:44;;;;;;;10.70;4.00;;;;;;;;;;105384;1257;59707;-48
2023/02/23 01:35:12;;;;;;;7.60;3.70;;;;;;;;;;105250;1258;61580;-47
2023/02/23 01:37:41;;;;;;;7.10;3.40;;;;;;;;;;105083;1257;59561;-46
2023/02/23 01:40:14;;;;;;;7.80;3.20;;;;;;;;;;105066;1263;62067;-45
2023/02/23 01:42:47;;;;;;;8.70;4.10;;;;;;;;;;105094;1259;59611;-46
2023/02/23 01:45:34;;;;;;;11.70;4.80;;;;;;;;;;105151;1260;59730;-46
2023/02/23 01:48:19;;;;;;;11.50;4.00;;;;;;;;;;105110;1258;61393;-47
2023/02/23 01:50:49;;;;;;;7.80;3.50;;;;;;;;;;105575;1259;60211;-46
2023/02/23 01:53:17;;;;;;;10.40;4.00;;;;;;;;;;105228;1261;59511;-45
2023/02/23 01:55:48;;;;;;;7.10;2.70;;;;;;;;;;105270;1259;59573;-46
2023/02/23 01:58:27;;;;;;;13.90;4.00;;;;;;;;;;105024;1255;59915;-45
2023/02/23 02:00:56;;;;;;;11.70;4.30;;;;;;;;;;105377;1258;61351;-46
2023/02/23 02:03:27;;;;;;;9.20;4.00;;;;;;;;;;105849;1259;59631;-47
2023/02/23 02:05:55;;;;;;;12.50;5.60;;;;;;;;;;105244;1263;60887;-44
2023/02/23 02:08:25;;;;;;;19.00;6.30;;;;;;;;;;104982;1254;59749;-45
2023/02/23 02:10:55;;;;;;;15.90;5.60;;;;;;;;;;105139;1255;59634;-46
2023/02/23 02:13:28;;;;;;;14.90;5.90;;;;;;;;;;105239;1257;61187;-46
2023/02/23 02:16:16;;;;;;;13.00;5.70;;;;;;;;;;105246;1259;59851;-47
2023/02/23 02:18:52;;;;;;;16.40;6.80;;;;;;;;;;105227;1259;60930;-47
2023/02/23 02:21:23;;;;;;;14.50;6.80;;;;;;;;;;105372;1260;60549;-43
2023/02/23 02:24:11;;;;;;;20.20;7.00;;;;;;;;;;105504;1259;60408;-48
2023/02/23 02:26:48;;;;;;;19.50;7.20;;;;;;;;;;105277;1260;61855;-45
2023/02/23 02:29:35;;;;;;;27.80;10.70;;;;;;;;;;105337;1259;60789;-44
2023/02/23 02:32:12;;;;;;;23.50;9.10;;;;;;;;;;105457;1259;60748;-46
2023/02/23 02:34:56;;;;;;;26.50;12.20;;;;;;;;;;105694;1259;60453;-47
2023/02/23 02:37:47;;;;;;;38.40;13.80;;;;;;;;;;105169;1257;60543;-47
2023/02/23 02:40:24;;;;;;;40.40;15.80;;;;;;;;;;105165;1260;61947;-47
2023/02/23 02:43:06;;;;;;;36.80;13.60;;;;;;;;;;104989;1259;60452;-44
2023/02/23 02:45:44;;;;;;;25.10;8.10;;;;;;;;;;105203;1257;60888;-44
2023/02/23 02:48:29;;;;;;;14.80;5.90;;;;;;;;;;105239;1260;60425;-46
2023/02/23 02:51:04;;;;;;;13.20;4.40;;;;;;;;;;105325;1260;60364;-44
2023/02/23 02:53:53;;;;;;;14.20;4.50;;;;;;;;;;105141;1260;61338;-44
2023/02/23 02:56:21;;;;;;;12.20;3.70;;;;;;;;;;104887;1266;60548;-46
2023/02/23 02:58:50;;;;;;;13.50;4.00;;;;;;;;;;104948;1263;60868;-47
2023/02/23 04:19:17;;;;;;;8.30;3.60;;;;;;;;;;105249;1260;62151;-46
2023/02/23 04:21:45;;;;;;;11.50;4.10;;;;;;;;;;105229;1260;60578;-46
2023/02/23 04:24:13;;;;;;;10.70;4.40;;;;;;;;;;105164;1260;61067;-46
2023/02/23 04:26:41;;;;;;;12.50;5.20;;;;;;;;;;105263;1264;60415;-46
2023/02/23 04:29:10;;;;;;;11.30;4.40;;;;;;;;;;105232;1260;60489;-44
2023/02/23 04:31:40;;;;;;;10.80;4.10;;;;;;;;;;105432;1260;61854;-44
2023/02/23 04:34:08;;;;;;;12.30;3.90;;;;;;;;;;105626;1258;60527;-44
2023/02/23 04:36:36;;;;;;;10.90;3.90;;;;;;;;;;105274;1258;60729;-46
2023/02/23 04:39:04;;;;;;;13.10;4.40;;;;;;;;;;105246;1268;60466;-45
2023/02/23 04:41:32;;;;;;;10.50;4.40;;;;;;;;;;106482;1260;60398;-46
2023/02/23 04:44:01;;;;;;;12.20;4.50;;;;;;;;;;105231;1257;61321;-46
2023/02/23 04:46:29;;;;;;;10.70;4.00;;;;;;;;;;105299;1260;60437;-45
2023/02/23 04:48:59;;;;;;;19.80;4.70;;;;;;;;;;105152;1254;60578;-45
2023/02/23 04:51:31;;;;;;;12.10;4.60;;;;;;;;;;105066;1260;61151;-46
2023/02/23 04:53:59;;;;;;;11.00;3.90;;;;;;;;;;105450;1255;60319;-46
2023/02/23 04:56:27;;;;;;;10.10;4.10;;;;;;;;;;105257;1254;60541;-47
2023/02/23 04:58:55;;;;;;;15.30;4.10;;;;;;;;;;105373;1260;60524;-45
2023/02/23 05:01:22;;;;;;;13.90;5.10;;;;;;;;;;105148;1257;60776;-46
2023/02/23 05:03:50;;;;;;;12.50;4.70;;;;;;;;;;105741;1255;60594;-46
2023/02/23 05:06:19;;;;;;;9.00;3.90;;;;;;;;;;105273;1254;60430;-46
2023/02/23 05:08:48;;;;;;;11.20;4.30;;;;;;;;;;105335;1257;61978;-46
2023/02/23 05:11:16;;;;;;;11.70;4.80;;;;;;;;;;105106;1260;60427;-47
2023/02/23 05:13:45;;;;;;;13.90;5.00;;;;;;;;;;105197;1257;60421;-47
2023/02/23 05:16:13;;;;;;;10.80;4.00;;;;;;;;;;105177;1260;61219;-46
2023/02/23 05:18:41;;;;;;;11.50;4.10;;;;;;;;;;105149;1254;60454;-46
2023/02/23 05:21:11;;;;;;;10.20;4.70;;;;;;;;;;105167;1254;60736;-46
2023/02/23 05:23:40;;;;;;;11.40;3.80;;;;;;;;;;105050;1258;60524;-46
2023/02/23 05:26:08;;;;;;;11.20;4.00;;;;;;;;;;106198;1260;60399;-46
2023/02/23 05:28:37;;;;;;;15.30;5.40;;;;;;;;;;105118;1257;60401;-47
2023/02/23 05:31:05;;;;;;;12.80;5.40;;;;;;;;;;105883;1257;60372;-47
2023/02/23 05:33:41;;;;;;;13.70;5.00;;;;;;;;;;105318;1258;62044;-46
2023/02/23 05:36:10;;;;;;;13.00;4.80;;;;;;;;;;105624;1257;60572;-46
2023/02/23 05:38:39;;;;;;;11.20;5.00;;;;;;;;;;105416;1260;60850;-47
2023/02/23 05:41:27;;;;;;;13.90;4.70;;;;;;;;;;105058;1257;60549;-46
2023/02/23 05:43:55;;;;;;;12.30;5.00;;;;;;;;;;105196;1260;60463;-46
2023/02/23 05:46:23;;;;;;;13.30;5.50;;;;;;;;;;104854;1258;61844;-46
2023/02/23 05:48:58;;;;;;;14.50;5.70;;;;;;;;;;105167;1260;60415;-46
2023/02/23 05:51:27;;;;;;;14.70;6.60;;;;;;;;;;105535;1254;60533;-47
2023/02/23 05:53:54;;;;;;;13.00;5.30;;;;;;;;;;105092;1255;60526;-46
2023/02/23 05:56:22;;;;;;;16.70;6.90;;;;;;;;;;105560;1254;60584;-46
2023/02/23 05:58:51;;;;;;;17.50;6.30;;;;;;;;;;105164;1258;61846;-48
2023/02/23 06:01:23;;;;;;;14.20;6.20;;;;;;;;;;105280;1254;60521;-45
2023/02/23 06:04:04;;;;;;;16.30;7.30;;;;;;;;;;105225;1254;60802;-46
2023/02/23 06:06:34;;;;;;;14.70;5.70;;;;;;;;;;105230;1257;61309;-46
2023/02/23 06:09:02;;;;;;;12.60;5.70;;;;;;;;;;105327;1254;60504;-46
2023/02/23 06:11:30;;;;;;;12.30;4.30;;;;;;;;;;105651;1254;60988;-46
2023/02/23 06:13:58;;;;;;;13.50;4.50;;;;;;;;;;105668;1258;60383;-46
2023/02/23 06:16:28;;;;;;;12.40;4.30;;;;;;;;;;105098;1257;60460;-46
2023/02/23 06:18:57;;;;;;;10.70;3.60;;;;;;;;;;105959;1253;60427;-46
2023/02/23 06:21:25;;;;;;;10.80;4.50;;;;;;;;;;105292;1254;60506;-45
2023/02/23 06:23:53;;;;;;;17.10;5.40;;;;;;;;;;105594;1254;62254;-47
2023/02/23 06:26:21;;;;;;;9.70;4.30;;;;;;;;;;105497;1257;60545;-45
2023/02/23 06:28:50;;;;;;;14.50;5.10;;;;;;;;;;105490;1254;60779;-44
2023/02/23 06:31:18;;;;;;;15.80;5.50;;;;;;;;;;105153;1257;61073;-46
2023/02/23 06:33:47;;;;;;;12.10;5.80;;;;;;;;;;105604;1254;60369;-45
2023/02/23 06:36:16;;;;;;;18.40;5.40;;;;;;;;;;105360;1254;62006;-45
2023/02/23 06:38:44;;;;;;;12.60;4.90;;;;;;;;;;105626;1257;60530;-45
2023/02/23 06:41:12;;;;;;;16.80;6.50;;;;;;;;;;105319;1254;60749;-45
2023/02/23 06:43:40;;;;;;;19.50;7.20;;;;;;;;;;105485;1259;60443;-46
2023/02/23 06:46:08;;;;;;;14.50;6.60;;;;;;;;;;105682;1253;60536;-46
2023/02/23 06:48:37;;;;;;;13.30;6.70;;;;;;;;;;105454;1253;62301;-46
2023/02/23 06:51:05;;;;;;;14.70;5.70;;;;;;;;;;105517;1260;60427;-47
2023/02/23 06:53:33;;;;;;;21.90;6.20;;;;;;;;;;105376;1254;60973;-47
2023/02/23 06:56:05;;;;;;;14.80;6.40;;;;;;;;;;105346;1254;60437;-45
2023/02/23 06:58:33;;;;;;;16.70;6.70;;;;;;;;;;105389;1254;60425;-45
2023/02/23 07:01:02;;;;;;;16.80;6.40;;;;;;;;;;105686;1254;63008;-43
2023/02/23 07:03:30;;;;;;;12.10;5.60;;;;;;;;;;105303;1257;60383;-46
2023/02/23 07:05:58;;;;;;;13.00;5.80;;;;;;;;;;105931;1255;60755;-45
2023/02/23 07:08:27;;;;;;;18.20;5.50;;;;;;;;;;105332;1258;60405;-47
2023/02/23 07:10:56;;;;;;;11.30;4.70;;;;;;;;;;105444;1251;60460;-43
2023/02/23 07:13:26;;;;;;;11.00;4.70;;;;;;;;;;105404;1251;62456;-46
2023/02/23 07:15:56;;;;;;;13.80;5.00;;;;;;;;;;109289;1251;58628;-47
2023/02/23 07:18:24;;;;;;;21.30;7.20;;;;;;;;;;109314;1251;60886;-47
2023/02/23 07:20:53;;;;;;;15.00;5.70;;;;;;;;;;108188;1254;59179;-46
2023/02/23 07:23:21;;;;;;;13.70;6.50;;;;;;;;;;105355;1256;60390;-44
2023/02/23 07:25:49;;;;;;;15.50;6.60;;;;;;;;;;105289;1257;60870;-45
2023/02/23 07:28:18;;;;;;;16.20;7.20;;;;;;;;;;106027;1251;60450;-44
2023/02/23 07:30:46;;;;;;;12.20;5.00;;;;;;;;;;105188;1251;61019;-48
2023/02/23 07:33:14;;;;;;;13.60;5.00;;;;;;;;;;105676;1253;60341;-44
2023/02/23 07:35:44;;;;;;;11.60;5.00;;;;;;;;;;106564;1254;60422;-45
2023/02/23 07:38:14;;;;;;;13.50;4.70;;;;;;;;;;105292;1256;62314;-45
2023/02/23 07:40:42;;;;;;;13.60;5.00;;;;;;;;;;105211;1251;60428;-45
2023/02/23 07:43:11;;;;;;;15.10;5.90;;;;;;;;;;105306;1251;61044;-42
2023/02/23 07:45:40;;;;;;;8.60;3.80;;;;;;;;;;106064;1256;60469;-45
2023/02/23 07:48:08;;;;;;;8.10;3.60;;;;;;;;;;105852;1251;60507;-44
2023/02/23 07:50:38;;;;;;;8.10;4.00;;;;;;;;;;106746;1251;62143;-43
2023/02/23 07:53:06;;;;;;;9.90;2.90;;;;;;;;;;105148;1253;60860;-47
2023/02/23 07:55:35;;;;;;;8.00;3.70;;;;;;;;;;105112;1256;60534;-46
2023/02/23 07:58:05;;;;;;;14.60;4.80;;;;;;;;;;105214;1253;60398;-48
2023/02/23 08:00:35;;;;;;;10.10;4.50;;;;;;;;;;105390;1255;60511;-46
2023/02/23 08:03:03;;;;;;;12.00;4.80;;;;;;;;;;105429;1256;62194;-46
2023/02/23 08:05:31;;;;;;;10.30;4.70;;;;;;;;;;105839;1255;60882;-44
2023/02/23 08:07:59;;;;;;;13.20;4.10;;;;;;;;;;106415;1256;60800;-46
2023/02/23 08:10:29;;;;;;;13.60;3.70;;;;;;;;;;105767;1253;59488;-45
2023/02/23 08:12:58;;;;;;;6.40;3.20;;;;;;;;;;105311;1251;60417;-46
2023/02/23 08:15:27;;;;;;;12.40;4.10;;;;;;;;;;105803;1256;62129;-46
2023/02/23 08:17:55;;;;;;;13.70;3.50;;;;;;;;;;105330;1256;60542;-46
2023/02/23 08:20:23;;;;;;;8.80;4.00;;;;;;;;;;105782;1251;60835;-47
2023/02/23 08:22:52;;;;;;;10.40;4.30;;;;;;;;;;105796;1251;59628;-47
2023/02/23 08:25:20;;;;;;;10.80;3.80;;;;;;;;;;105214;1254;60346;-47
2023/02/23 08:27:52;;;;;;;10.30;4.10;;;;;;;;;;106001;1251;62472;-46
2023/02/23 08:30:26;;;;;;;17.10;6.50;;;;;;;;;;105454;1256;60402;-49
2023/02/23 08:32:57;;;;;;;11.10;5.30;;;;;;;;;;106436;1256;60606;-48
2023/02/23 08:35:26;;;;;;;9.20;3.60;;;;;;;;;;105844;1257;60839;-46
2023/02/23 08:37:56;;;;;;;9.20;3.50;;;;;;;;;;105711;1257;59074;-47
2023/02/23 08:40:40;;;;;;;10.10;4.40;;;;;;;;;;106580;1251;63327;-46
2023/02/23 08:43:09;;;;;;;11.30;3.40;;;;;;;;;;105495;1251;60411;-43
2023/02/23 08:45:38;;;;;;;8.70;4.20;;;;;;;;;;105621;1255;60748;-49
2023/02/23 08:48:07;;;;;;;10.30;3.20;;;;;;;;;;106175;1255;60532;-42
2023/02/23 08:50:38;;;;;;;10.50;3.70;;;;;;;;;;104839;1256;61029;-45
2023/02/23 08:53:06;;;;;;;8.30;2.80;;;;;;;;;;105521;1251;62097;-45
2023/02/23 08:55:34;;;;;;;13.00;4.90;;;;;;;;;;104906;1251;60536;-44
2023/02/23 08:58:02;;;;;;;11.80;4.00;;;;;;;;;;105480;1251;60396;-45
2023/02/23 09:00:30;;;;;;;9.70;4.20;;;;;;;;;;105075;1254;60413;-45
2023/02/23 09:02:59;;;;;;;12.70;5.10;;;;;;;;;;105095;1251;60415;-45
2023/02/23 09:05:28;;;;;;;10.60;5.70;;;;;;;;;;105259;1251;62284;-47
2023/02/23 09:07:56;;;;;;;14.70;6.30;;;;;;;;;;105339;1253;59318;-50
2023/02/23 09:10:26;;;;;;;12.20;5.80;;;;;;;;;;105007;1256;62272;-47
2023/02/23 09:12:59;;;;;;;15.70;6.90;;;;;;;;;;105707;1256;60527;-46
2023/02/23 09:15:27;;;;;;;16.30;6.70;;;;;;;;;;104986;1251;60410;-45
2023/02/23 09:17:58;;;;;;;16.00;7.00;;;;;;;;;;105238;1251;61222;-46
2023/02/23 09:20:26;;;;;;;17.70;7.80;;;;;;;;;;105869;1256;60364;-49
2023/02/23 09:22:54;;;;;;;12.80;6.80;;;;;;;;;;107302;1251;60453;-44
2023/02/23 09:25:28;;;;;;;14.30;7.10;;;;;;;;;;105180;1256;60462;-45
2023/02/23 09:27:56;;;;;;;14.50;6.70;;;;;;;;;;105659;1253;60428;-45
2023/02/23 09:30:24;;;;;;;17.80;8.70;;;;;;;;;;105430;1251;60862;-45
2023/02/23 09:32:53;;;;;;;17.10;7.50;;;;;;;;;;105766;1256;60398;-47
2023/02/23 09:35:22;;;;;;;12.00;6.20;;;;;;;;;;104999;1257;60431;-46
2023/02/23 09:37:51;;;;;;;11.80;5.40;;;;;;;;;;105215;1255;60550;-44
2023/02/23 09:40:23;;;;;;;14.80;6.80;;;;;;;;;;105697;1251;60421;-46
2023/02/23 09:43:05;;;;;;;15.80;7.40;;;;;;;;;;105126;1251;62365;-47
2023/02/23 09:45:46;;;;;;;12.70;5.30;;;;;;;;;;105606;1257;60418;-45
2023/02/23 09:48:20;;;;;;;13.30;6.60;;;;;;;;;;105433;1251;60428;-43
2023/02/23 09:50:55;;;;;;;14.10;6.70;;;;;;;;;;105216;1257;60430;-47
2023/02/23 09:53:34;;;;;;;10.30;5.00;;;;;;;;;;105453;1251;60466;-46
2023/02/23 09:56:26;;;;;;;9.70;4.70;;;;;;;;;;105354;1251;62226;-49
2023/02/23 09:59:03;;;;;;;11.10;6.00;;;;;;;;;;105476;1251;60511;-46
2023/02/23 10:01:34;;;;;;;16.60;5.50;;;;;;;;;;105656;1256;60783;-45
2023/02/23 10:04:14;;;;;;;12.70;6.60;;;;;;;;;;105463;1256;60463;-45
2023/02/23 10:06:43;;;;;;;12.80;5.90;;;;;;;;;;105347;1251;60364;-46
2023/02/23 10:09:34;;;;;;;13.60;5.70;;;;;;;;;;105114;1251;62243;-45
2023/02/23 10:12:02;;;;;;;12.20;5.10;;;;;;;;;;105224;1253;60611;-46
2023/02/23 10:14:38;;;;;;;11.90;4.70;;;;;;;;;;105261;1251;60794;-45
2023/02/23 10:17:25;;;;;;;13.90;6.10;;;;;;;;;;105777;1255;60693;-44
2023/02/23 10:19:56;;;;;;;10.20;4.80;;;;;;;;;;105264;1253;60513;-46
2023/02/23 10:22:27;;;;;;;12.90;5.00;;;;;;;;;;105318;1256;156422;-47
2023/02/23 10:26:07;;;;;;;16.90;5.80;;;;;;;;;;102297;1292;601648;-45
2023/02/23 10:28:35;;;;;;;10.60;5.40;;;;;;;;;;104644;1268;59078;-46
2023/02/23 10:31:06;;;;;;;12.10;4.40;;;;;;;;;;104591;1263;60613;-47
2023/02/23 10:33:35;;;;;;;13.30;4.50;;;;;;;;;;104337;1263;60512;-47
2023/02/23 10:36:18;;;;;;;13.90;5.90;;;;;;;;;;104583;1264;59035;-46
2023/02/23 10:38:46;;;;;;;14.50;5.70;;;;;;;;;;104408;1266;155130;-47
2023/02/23 10:41:17;;;;;;;12.30;5.50;;;;;;;;;;104701;1263;59047;-45
2023/02/23 10:43:45;;;;;;;12.70;4.50;;;;;;;;;;104725;1260;58982;-47
2023/02/23 10:46:18;;;;;;;9.80;4.80;;;;;;;;;;104762;1261;60426;-46
2023/02/23 10:48:46;;;;;;;14.90;5.80;;;;;;;;;;105216;1268;59002;-46
2023/02/23 10:51:18;;;;;;;11.80;5.40;;;;;;;;;;105553;1265;60611;-44
2023/02/23 10:53:47;;;;;;;12.10;6.10;;;;;;;;;;105171;1265;59627;-47
2023/02/23 10:56:16;;;;;;;10.80;4.70;;;;;;;;;;104216;1262;59644;-46
2023/02/23 10:58:47;;;;;;;10.90;5.60;;;;;;;;;;104512;1262;61234;-47
2023/02/23 11:01:37;;;;;;;9.90;4.80;;;;;;;;;;105075;1263;59619;-45
2023/02/23 11:04:10;;;;;;;;;;;;;;;;;;104411;1264;60544;-45
2023/02/23 11:06:42;;;;;;;10.20;4.80;;;;;;;;;;104845;1265;59728;-44
2023/02/23 11:09:26;;;;;;;7.90;3.80;;;;;;;;;;105036;1262;59719;-47
2023/02/23 11:12:20;;;;;;;7.90;3.60;;;;;;;;;;104755;1263;61185;-46
2023/02/23 11:14:50;;;;;;;8.00;2.90;;;;;;;;;;104565;1262;59654;-48
2023/02/23 11:17:26;;;;;;;7.70;3.60;;;;;;;;;;104934;1265;60753;-47
2023/02/23 11:19:58;;;;;;;7.70;3.40;;;;;;;;;;104479;1260;59622;-48
2023/02/23 11:22:28;;;;;;;9.70;3.60;;;;;;;;;;105895;1261;59548;-46
2023/02/23 11:24:59;;;;;;;8.50;3.60;;;;;;;;;;104286;1267;61602;-46
2023/02/23 11:27:27;;;;;;;8.20;3.40;;;;;;;;;;104602;1263;59664;-44
2023/02/23 11:29:56;;;;;;;11.20;3.80;;;;;;;;;;104257;1264;60841;-47
2023/02/23 11:32:31;;;;;;;8.00;3.80;;;;;;;;;;104488;1267;59677;-47
2023/02/23 11:35:18;;;;;;;6.20;2.90;;;;;;;;;;104358;1263;59691;-48
2023/02/23 11:37:46;;;;;;;10.90;5.60;;;;;;;;;;104507;1264;60384;-48
2023/02/23 11:40:17;;;;;;;6.10;3.30;;;;;;;;;;104521;1264;58991;-45
2023/02/23 11:42:53;;;;;;;11.40;3.70;;;;;;;;;;104906;1262;61102;-45
2023/02/23 11:45:22;;;;;;;11.60;3.30;;;;;;;;;;104483;1268;59725;-47
2023/02/23 11:47:57;;;;;;;5.60;2.20;;;;;;;;;;104316;1263;59733;-47
2023/02/23 11:50:29;;;;;;;4.40;2.40;;;;;;;;;;104938;1262;61688;-47
2023/02/23 11:53:00;;;;;;;7.30;2.60;;;;;;;;;;104476;1268;59709;-48
2023/02/23 11:55:28;;;;;;;5.50;2.10;;;;;;;;;;104399;1263;60610;-45
2023/02/23 11:58:10;;;;;;;4.40;2.10;;;;;;;;;;104859;1267;59829;-44
2023/02/23 12:00:39;;;;;;;5.30;1.90;;;;;;;;;;104590;1263;59797;-45
2023/02/23 12:03:11;;;;;;;6.60;1.60;;;;;;;;;;104725;1263;61214;-48
2023/02/23 12:05:40;;;;;;;3.30;1.10;;;;;;;;;;105232;1263;59676;-46
2023/02/23 12:08:11;;;;;;;4.50;1.10;;;;;;;;;;104374;1268;61158;-46
2023/02/23 12:10:39;;;;;;;4.10;1.20;;;;;;;;;;104632;1262;59854;-46
2023/02/23 12:13:07;;;;;;;3.40;1.20;;;;;;;;;;104433;1263;59682;-45
2023/02/23 12:15:39;;;;;;;3.80;1.70;;;;;;;;;;104470;1266;61474;-46
2023/02/23 12:18:15;;;;;;;5.80;1.80;;;;;;;;;;104333;1263;59808;-46
2023/02/23 12:20:48;;;;;;;4.20;1.80;;;;;;;;;;104066;1263;61001;-45
2023/02/23 12:23:20;;;;;;;4.60;2.20;;;;;;;;;;104266;1264;59710;-46
2023/02/23 12:25:56;;;;;;;4.10;1.50;;;;;;;;;;106461;1265;59121;-48
2023/02/23 12:28:44;;;;;;;;;;;;;;;;;;104675;1266;62835;-46
2023/02/23 12:31:18;;;;;;;4.10;2.40;;;;;;;;;;104550;1261;59705;-47
2023/02/23 12:33:47;;;;;;;4.80;1.90;;;;;;;;;;105027;1263;60596;-48
2023/02/23 12:36:32;;;;;;;4.30;2.30;;;;;;;;;;104561;1263;59702;-46
2023/02/23 12:39:20;;;;;;;11.10;3.30;;;;;;;;;;105084;1264;59736;-46
2023/02/23 12:41:56;;;;;;;6.30;2.80;;;;;;;;;;104498;1263;60093;-48
2023/02/23 12:44:36;;;;;;;7.40;3.40;;;;;;;;;;105041;1262;60272;-44
2023/02/23 12:47:23;;;;;;;6.30;2.40;;;;;;;;;;104577;1263;59669;-43
2023/02/23 12:49:52;;;;;;;8.80;3.50;;;;;;;;;;104806;1257;59809;-47
2023/02/23 12:52:21;;;;;;;5.40;2.60;;;;;;;;;;105206;1263;59533;-44
2023/02/23 12:54:49;;;;;;;8.50;3.10;;;;;;;;;;104977;1260;61334;-46
2023/02/23 12:57:32;;;;;;;4.90;2.40;;;;;;;;;;105013;1262;59563;-45
2023/02/23 13:00:29;;;;;;;6.80;2.80;;;;;;;;;;105214;1258;60542;-46
2023/02/23 13:03:08;;;;;;;4.40;2.10;;;;;;;;;;105782;1260;60005;-44
2023/02/23 13:05:44;;;;;;;5.10;3.00;;;;;;;;;;104881;1259;59641;-45
2023/02/23 13:08:35;;;;;;;10.10;2.20;;;;;;;;;;104704;1262;61429;-45
2023/02/23 13:11:11;;;;;;;4.80;2.20;;;;;;;;;;104706;1262;60297;-47
2023/02/23 13:13:56;;;;;;;4.70;2.70;;;;;;;;;;104794;1262;60442;-46
2023/02/23 13:16:28;;;;;;;7.70;2.90;;;;;;;;;;104839;1262;59638;-49
2023/02/23 13:19:05;;;;;;;8.50;3.30;;;;;;;;;;104443;1260;59018;-49
2023/02/23 13:21:41;;;;;;;5.70;2.40;;;;;;;;;;104704;1260;61095;-48
2023/02/23 13:24:17;;;;;;;8.30;2.90;;;;;;;;;;104820;1260;59711;-46
2023/02/23 13:26:59;;;;;;;6.30;1.80;;;;;;;;;;105186;1262;60731;-46
2023/02/23 13:29:40;;;;;;;5.40;2.90;;;;;;;;;;105040;1260;59765;-46
2023/02/23 13:32:12;;;;;;;8.90;3.20;;;;;;;;;;104676;1260;59512;-45
2023/02/23 13:34:41;;;;;;;7.90;2.70;;;;;;;;;;105089;1260;61355;-46
2023/02/23 13:37:10;;;;;;;12.30;3.50;;;;;;;;;;105059;1259;59621;-45
2023/02/23 13:39:46;;;;;;;10.90;4.00;;;;;;;;;;105114;1256;60387;-46
2023/02/23 13:42:18;;;;;;;5.50;3.00;;;;;;;;;;105163;1257;59746;-47
2023/02/23 13:44:48;;;;;;;6.40;3.80;;;;;;;;;;104743;1256;59562;-47
2023/02/23 13:47:25;;;;;;;7.60;3.90;;;;;;;;;;104876;1256;61370;-47
2023/02/23 13:49:55;;;;;;;7.70;4.10;;;;;;;;;;104950;1258;59590;-46
2023/02/23 13:52:32;;;;;;;13.40;4.20;;;;;;;;;;104950;1257;59615;-47
2023/02/23 13:55:03;;;;;;;8.70;4.90;;;;;;;;;;104668;1255;59746;-46
2023/02/23 13:57:32;;;;;;;8.90;4.70;;;;;;;;;;105814;1259;60106;-45
2023/02/23 13:59:59;;;;;;;7.40;3.70;;;;;;;;;;104741;1256;61432;-46
2023/02/23 14:02:29;;;;;;;10.30;4.50;;;;;;;;;;104736;1254;59687;-47
2023/02/23 14:05:05;;;;;;;11.20;4.70;;;;;;;;;;106720;1254;60499;-48
2023/02/23 14:07:38;;;;;;;12.70;4.70;;;;;;;;;;105010;1260;59625;-44
2023/02/23 14:10:20;;;;;;;15.50;5.00;;;;;;;;;;104740;1254;59543;-47
2023/02/23 14:13:07;;;;;;;10.30;5.90;;;;;;;;;;104721;1254;61295;-47
2023/02/23 14:15:39;;;;;;;9.00;5.00;;;;;;;;;;104749;1256;61732;-46
2023/02/23 14:18:16;;;;;;;14.10;4.90;;;;;;;;;;104885;1257;59981;-46
2023/02/23 14:21:03;;;;;;;10.00;4.60;;;;;;;;;;105899;1259;59740;-46
2023/02/23 14:23:34;;;;;;;10.70;5.10;;;;;;;;;;105396;1259;59649;-48
2023/02/23 14:26:12;;;;;;;13.50;5.00;;;;;;;;;;106114;1250;61302;-48
2023/02/23 14:28:42;;;;;;;11.30;5.00;;;;;;;;;;105151;1250;59538;-47
2023/02/23 14:31:10;;;;;;;9.60;4.70;;;;;;;;;;105261;1253;60871;-46
2023/02/23 14:33:47;;;;;;;9.20;4.50;;;;;;;;;;106276;1256;59607;-45
2023/02/23 14:36:22;;;;;;;9.40;3.80;;;;;;;;;;105436;1258;59612;-46
2023/02/23 14:38:59;;;;;;;15.60;5.90;;;;;;;;;;106340;1254;61300;-46
2023/02/23 14:41:50;;;;;;;8.70;5.10;;;;;;;;;;105247;1254;59582;-43
2023/02/23 14:44:20;;;;;;;11.50;5.40;;;;;;;;;;105540;1252;60733;-45
2023/02/23 14:47:17;;;;;;;9.80;4.60;;;;;;;;;;105455;1253;60543;-47
2023/02/23 14:50:00;;;;;;;10.80;6.10;;;;;;;;;;105439;1251;60434;-48
2023/02/23 14:52:31;;;;;;;11.20;5.30;;;;;;;;;;105054;1250;62165;-48
2023/02/23 14:55:11;;;;;;;17.40;6.30;;;;;;;;;;105693;1254;60523;-45
2023/02/23 14:57:41;;;;;;;11.70;6.30;;;;;;;;;;105313;1252;60878;-47
2023/02/23 15:00:21;;;;;;;12.60;6.20;;;;;;;;;;105284;1250;60443;-46
2023/02/23 15:02:55;;;;;;;12.10;5.70;;;;;;;;;;105913;1254;60543;-46
2023/02/23 15:05:28;;;;;;;13.20;5.70;;;;;;;;;;105218;1250;61166;-43
2023/02/23 15:07:57;;;;;;;10.60;5.90;;;;;;;;;;105231;1256;61021;-47
2023/02/23 15:10:35;;;;;;;12.20;5.60;;;;;;;;;;105140;1256;60652;-47
2023/02/23 15:13:07;;;;;;;8.70;4.70;;;;;;;;;;105014;1257;60396;-45
2023/02/23 15:15:44;;;;;;;15.60;7.20;;;;;;;;;;105184;1257;60462;-46
2023/02/23 15:18:20;;;;;;;18.80;6.40;;;;;;;;;;105401;1250;61852;-48
2023/02/23 15:20:48;;;;;;;13.90;6.80;;;;;;;;;;104918;1251;60365;-49
2023/02/23 15:23:17;;;;;;;12.30;6.00;;;;;;;;;;105394;1252;60542;-48
2023/02/23 15:25:49;;;;;;;18.50;6.20;;;;;;;;;;105481;1254;60423;-47
2023/02/23 15:28:22;;;;;;;14.30;7.90;;;;;;;;;;105520;1250;60481;-47
2023/02/23 15:30:58;;;;;;;17.50;7.90;;;;;;;;;;105407;1251;62122;-46
2023/02/23 15:33:29;;;;;;;18.60;6.40;;;;;;;;;;105823;1254;60409;-47
2023/02/23 15:36:07;;;;;;;17.10;7.20;;;;;;;;;;105637;1256;60784;-46
2023/02/23 15:38:39;;;;;;;11.50;6.50;;;;;;;;;;105526;1251;60529;-46
2023/02/23 15:41:14;;;;;;;13.80;6.40;;;;;;;;;;105501;1250;60760;-47
2023/02/23 15:43:42;;;;;;;8.00;5.50;;;;;;;;;;105325;1250;62159;-46
2023/02/23 15:46:11;;;;;;;11.50;5.60;;;;;;;;;;105474;1255;60423;-46
2023/02/23 15:48:44;;;;;;;12.30;6.10;;;;;;;;;;105312;1251;60550;-46
2023/02/23 15:51:17;;;;;;;13.70;6.20;;;;;;;;;;105483;1255;60348;-48
2023/02/23 15:53:48;;;;;;;12.80;6.40;;;;;;;;;;106483;1251;60517;-45
2023/02/23 15:56:26;;;;;;;11.90;5.10;;;;;;;;;;105527;1254;61926;-47
2023/02/23 15:58:55;;;;;;;15.70;7.20;;;;;;;;;;105629;1255;60431;-45
2023/02/23 16:01:27;;;;;;;17.10;6.90;;;;;;;;;;105671;1257;60723;-47
2023/02/23 16:04:05;;;;;;;14.20;6.80;;;;;;;;;;106693;1256;60531;-45
2023/02/23 16:06:35;;;;;;;14.00;6.20;;;;;;;;;;105469;1251;60821;-45
2023/02/23 16:09:22;;;;;;;14.30;7.30;;;;;;;;;;105913;1253;61188;-47